createdAt,value
2022-08-18T00:02:17.315Z,30.45
2022-08-18T00:04:49.630Z,29.00
2022-08-18T00:07:19.559Z,29.38
2022-08-18T00:09:48.715Z,20.08
2022-08-18T00:12:19.793Z,28.58
2022-08-18T00:14:48.229Z,38.85
2022-08-18T00:17:16.556Z,25.83
2022-08-18T00:19:47.588Z,39.30
2022-08-18T00:22:18.932Z,30.15
2022-08-18T00:24:49.823Z,21.45
2022-08-18T00:27:22.992Z,26.48
2022-08-18T00:29:52.368Z,25.70
2022-08-18T00:32:23.340Z,25.35
2022-08-18T00:34:50.955Z,23.88
2022-08-18T00:37:18.628Z,30.55
2022-08-18T00:39:47.806Z,23.33
2022-08-18T00:42:27.505Z,20.42
2022-08-18T00:45:00.665Z,21.55
2022-08-18T00:47:33.169Z,19.63
2022-08-18T00:50:14.864Z,19.27
2022-08-18T00:52:45.436Z,48.20
2022-08-18T00:55:14.813Z,21.50
2022-08-18T00:57:43.417Z,17.33
2022-08-18T01:00:15.172Z,22.98
2022-08-18T01:02:45.919Z,7.43
2022-08-18T01:05:19.619Z,12.43
2022-08-18T01:07:49.509Z,21.60
2022-08-18T01:10:21.272Z,8.40
2022-08-18T01:12:51.640Z,7.78
2022-08-18T01:15:28.023Z,12.73
2022-08-18T01:18:15.568Z,12.32
2022-08-18T01:21:14.782Z,20.02
2022-08-18T01:23:43.887Z,9.90
2022-08-18T01:26:11.061Z,9.55
2022-08-18T01:28:40.751Z,15.32
2022-08-18T01:31:10.170Z,15.95
2022-08-18T01:33:42.249Z,10.02
2022-08-18T01:36:14.549Z,11.52
2022-08-18T01:38:44.117Z,15.02
2022-08-18T01:41:27.012Z,27.60
2022-08-18T01:43:56.894Z,8.88
2022-08-18T01:46:24.440Z,11.27
2022-08-18T01:48:52.094Z,21.52
2022-08-18T01:51:34.744Z,13.32
2022-08-18T01:54:11.753Z,8.80
2022-08-18T01:56:40.690Z,10.68
2022-08-18T01:59:10.318Z,17.63
2022-08-18T02:01:46.619Z,16.90
2022-08-18T02:04:34.586Z,12.27
2022-08-18T02:07:06.726Z,10.52
2022-08-18T02:09:37.289Z,15.95
2022-08-18T02:12:07.179Z,21.10
2022-08-18T02:14:34.995Z,13.10
2022-08-18T02:17:04.274Z,21.85
2022-08-18T02:19:34.251Z,10.50
2022-08-18T02:22:02.462Z,22.25
2022-08-18T02:24:30.277Z,33.42
2022-08-18T02:26:59.163Z,12.75
2022-08-18T02:29:26.718Z,11.20
2022-08-18T02:31:54.461Z,10.15
2022-08-18T02:34:22.017Z,11.63
2022-08-18T02:36:49.786Z,11.80
2022-08-18T02:39:17.310Z,26.35
2022-08-18T02:41:45.207Z,16.13
2022-08-18T02:44:14.296Z,22.67
2022-08-18T02:46:41.865Z,35.33
2022-08-18T02:49:09.406Z,28.75
2022-08-18T02:51:37.335Z,49.25
2022-08-18T02:54:09.164Z,28.50
2022-08-18T02:56:41.857Z,11.50
2022-08-18T02:59:13.942Z,30.88
2022-08-18T03:01:46.082Z,24.20
2022-08-18T03:04:15.771Z,21.55
2022-08-18T03:06:45.369Z,39.83
2022-08-18T03:09:14.724Z,26.58
2022-08-18T03:11:43.606Z,14.57
2022-08-18T03:14:12.300Z,19.33
2022-08-18T03:16:52.776Z,13.90
2022-08-18T03:19:24.346Z,16.60
2022-08-18T03:21:52.526Z,19.60
2022-08-18T03:24:22.934Z,37.80
2022-08-18T03:26:52.574Z,28.02
2022-08-18T03:29:21.242Z,38.15
2022-08-18T03:31:49.102Z,39.40
2022-08-18T03:34:19.577Z,11.45
2022-08-18T03:36:49.083Z,8.10
2022-08-18T03:39:17.030Z,10.05
2022-08-18T03:41:59.702Z,7.97
2022-08-18T03:44:31.380Z,9.43
2022-08-18T03:47:00.142Z,10.00
2022-08-18T03:49:27.876Z,12.32
2022-08-18T03:52:00.035Z,10.50
2022-08-18T03:54:27.779Z,12.65
2022-08-18T03:56:55.818Z,13.88
2022-08-18T03:59:26.976Z,17.70
2022-08-18T04:01:55.912Z,13.80
2022-08-18T04:04:26.066Z,19.80
2022-08-18T04:06:58.304Z,23.92
2022-08-18T04:09:27.609Z,28.30
2022-08-18T04:11:55.675Z,13.32
2022-08-18T04:14:26.048Z,14.65
2022-08-18T04:16:53.734Z,22.15
2022-08-18T04:19:26.149Z,21.08
2022-08-18T04:21:57.943Z,21.52
2022-08-18T04:24:28.237Z,31.65
2022-08-18T04:27:01.027Z,23.65
2022-08-18T04:29:29.268Z,23.88
2022-08-18T04:31:56.849Z,24.70
2022-08-18T04:34:24.479Z,28.25
2022-08-18T04:36:53.825Z,32.20
2022-08-18T04:39:23.981Z,37.40
2022-08-18T04:41:52.557Z,33.70
2022-08-18T04:44:21.652Z,44.63
2022-08-18T04:46:52.037Z,29.08
2022-08-18T04:49:21.505Z,46.03
2022-08-18T04:52:38.971Z,30.70
2022-08-18T04:54:54.150Z,41.90
2022-08-18T04:57:22.955Z,31.20
2022-08-18T04:59:52.390Z,32.83
2022-08-18T05:02:22.831Z,32.75
2022-08-18T05:04:52.266Z,33.63
2022-08-18T05:07:22.548Z,34.90
2022-08-18T05:09:50.356Z,41.97
2022-08-18T05:12:19.243Z,39.40
2022-08-18T05:14:51.928Z,43.60
2022-08-18T05:17:19.470Z,43.08
2022-08-18T05:19:47.038Z,47.78
2022-08-18T05:22:19.342Z,48.90
2022-08-18T05:24:53.837Z,33.92
2022-08-18T05:27:22.671Z,56.83
2022-08-18T05:29:51.735Z,54.75
2022-08-18T05:32:41.083Z,40.28
2022-08-18T05:35:12.122Z,35.13
2022-08-18T05:37:49.483Z,56.50
2022-08-18T05:40:17.163Z,45.30
2022-08-18T05:42:48.657Z,36.83
2022-08-18T05:45:18.783Z,47.13
2022-08-18T05:47:47.450Z,47.45
2022-08-18T05:50:18.105Z,51.08
2022-08-18T05:52:52.559Z,49.15
2022-08-18T05:55:47.651Z,45.60
2022-08-18T05:58:20.817Z,41.85
2022-08-18T06:00:57.513Z,27.95
2022-08-18T06:03:45.282Z,21.35
2022-08-18T06:06:19.397Z,19.02
2022-08-18T06:08:53.716Z,24.70
2022-08-18T06:11:22.201Z,41.10
2022-08-18T06:13:54.223Z,30.48
2022-08-18T06:16:37.992Z,25.27
2022-08-18T06:19:27.291Z,16.38
2022-08-18T06:22:03.593Z,22.15
2022-08-18T06:24:36.967Z,31.85
2022-08-18T06:27:15.825Z,47.65
2022-08-18T06:29:57.931Z,41.88
2022-08-18T06:32:31.146Z,73.32
2022-08-18T06:35:11.735Z,52.55
2022-08-18T06:38:00.550Z,39.72
2022-08-18T06:40:28.103Z,30.83
2022-08-18T06:42:55.742Z,32.90
2022-08-18T06:45:40.132Z,27.70
2022-08-18T06:48:15.271Z,41.05
2022-08-18T06:50:50.032Z,23.90
2022-08-18T06:53:26.415Z,23.45
2022-08-18T06:55:56.215Z,37.55
2022-08-18T06:58:29.923Z,29.80
2022-08-18T07:01:03.118Z,42.90
2022-08-18T07:03:47.596Z,31.13
2022-08-18T07:06:29.241Z,40.60
2022-08-18T07:09:20.606Z,15.88
2022-08-18T07:12:01.104Z,18.88
2022-08-18T07:14:28.669Z,34.08
2022-08-18T07:17:09.351Z,28.25
2022-08-18T07:19:37.144Z,13.95
2022-08-18T07:22:08.876Z,32.88
2022-08-18T07:24:41.501Z,32.10
2022-08-18T07:27:11.288Z,16.90
2022-08-18T07:29:40.741Z,24.63
2022-08-18T07:32:21.524Z,52.40
2022-08-18T07:34:55.070Z,20.20
2022-08-18T07:37:29.001Z,33.03
2022-08-18T07:40:02.299Z,36.03
2022-08-18T07:42:53.851Z,32.53
2022-08-18T07:45:27.900Z,13.02
2022-08-18T07:48:15.675Z,21.90
2022-08-18T07:51:01.447Z,30.90
2022-08-18T07:53:40.173Z,8.93
2022-08-18T07:56:18.599Z,19.83
2022-08-18T07:58:53.244Z,17.13
2022-08-18T08:01:29.656Z,17.88
2022-08-18T08:04:25.266Z,29.73
2022-08-18T08:07:23.427Z,23.10
2022-08-18T08:09:58.347Z,30.40
2022-08-18T08:12:36.957Z,14.63
2022-08-18T08:15:13.576Z,12.38
2022-08-18T08:17:49.153Z,24.77
2022-08-18T08:20:32.513Z,14.63
2022-08-18T08:23:10.525Z,12.65
2022-08-18T08:25:48.349Z,16.73
2022-08-18T08:28:27.035Z,23.23
2022-08-18T08:31:25.665Z,11.25
2022-08-18T08:33:56.895Z,25.58
2022-08-18T08:36:31.074Z,9.52
2022-08-18T08:39:03.356Z,20.85
2022-08-18T08:41:37.434Z,20.73
2022-08-18T08:44:10.537Z,23.48
2022-08-18T08:46:46.450Z,23.45
2022-08-18T08:49:26.377Z,22.10
2022-08-18T08:51:59.254Z,10.05
2022-08-18T08:54:31.633Z,25.40
2022-08-18T08:57:02.168Z,18.33
2022-08-18T08:59:29.738Z,14.65
2022-08-18T09:02:09.296Z,11.65
2022-08-18T09:05:04.882Z,20.85
2022-08-18T09:07:50.531Z,17.55
2022-08-18T09:10:48.366Z,18.45
2022-08-18T09:13:38.547Z,21.40
2022-08-18T09:16:29.505Z,15.50
2022-08-18T09:19:13.669Z,16.23
2022-08-18T09:21:46.778Z,22.48
2022-08-18T09:24:25.693Z,28.27
2022-08-18T09:27:13.703Z,13.30
2022-08-18T09:29:51.577Z,16.67
2022-08-18T09:32:56.720Z,13.57
2022-08-18T09:35:45.516Z,15.50
2022-08-18T09:38:42.754Z,12.05
2022-08-18T09:41:33.176Z,11.57
2022-08-18T09:44:21.325Z,14.40
2022-08-18T09:46:58.693Z,27.27
2022-08-18T09:49:41.606Z,22.60
2022-08-18T09:52:55.737Z,33.42
2022-08-18T09:55:42.470Z,17.23
2022-08-18T09:58:52.686Z,13.18
2022-08-18T10:01:43.309Z,37.85
2022-08-18T10:04:29.384Z,17.40
2022-08-18T10:07:17.338Z,47.13
2022-08-18T10:09:54.836Z,31.30
2022-08-18T10:12:53.502Z,62.33
2022-08-18T10:15:35.517Z,41.38
2022-08-18T10:18:18.804Z,42.85
2022-08-18T10:20:57.078Z,29.60
2022-08-18T10:23:49.517Z,44.17
2022-08-18T10:27:05.518Z,41.65
2022-08-18T10:29:56.546Z,32.30
2022-08-18T10:32:52.098Z,57.00
2022-08-18T10:35:56.403Z,44.50
2022-08-18T10:38:30.772Z,13.60
2022-08-18T10:41:15.345Z,14.50
2022-08-18T10:43:57.228Z,38.20
2022-08-18T10:49:25.975Z,41.70
2022-08-18T10:52:17.107Z,26.88
2022-08-18T10:55:10.543Z,33.03
2022-08-18T10:57:55.218Z,49.63
2022-08-18T11:00:37.761Z,49.75
2022-08-18T11:03:40.005Z,55.20
2022-08-18T11:06:14.507Z,53.10
2022-08-18T11:08:48.668Z,16.02
2022-08-18T11:11:34.617Z,11.40
2022-08-18T11:14:23.545Z,43.78
2022-08-18T11:16:59.774Z,13.45
2022-08-18T11:19:28.311Z,11.70
2022-08-18T11:21:57.429Z,11.32
2022-08-18T11:24:28.593Z,23.73
2022-08-18T11:26:58.867Z,10.60
2022-08-18T11:29:32.430Z,36.17
2022-08-18T11:32:11.089Z,31.52
2022-08-18T11:34:51.950Z,35.60
2022-08-18T11:37:27.994Z,24.48
2022-08-18T11:49:16.143Z,29.73
2022-08-18T11:51:57.128Z,13.25
2022-08-18T11:57:46.258Z,35.47
2022-08-18T12:00:52.769Z,30.52
2022-08-18T12:06:23.586Z,41.35
2022-08-18T12:08:59.338Z,43.90
2022-08-18T12:11:31.004Z,47.10
2022-08-18T12:14:31.161Z,61.58
2022-08-18T12:16:51.221Z,57.60
2022-08-18T12:19:24.212Z,41.55
2022-08-18T12:21:54.576Z,49.17
2022-08-18T12:24:26.321Z,43.95
2022-08-18T12:29:47.622Z,21.27
2022-08-18T12:32:17.883Z,12.45
2022-08-18T12:35:09.524Z,57.33
2022-08-18T12:40:26.392Z,52.55
2022-08-18T12:42:55.756Z,36.58
2022-08-18T12:45:25.775Z,59.35
2022-08-18T12:47:54.688Z,9.82
2022-08-18T12:50:31.099Z,11.15
2022-08-18T12:53:01.477Z,29.17
2022-08-18T12:55:34.785Z,25.85
2022-08-18T12:58:05.239Z,24.20
2022-08-18T13:00:33.401Z,17.40
2022-08-18T13:03:00.934Z,35.95
2022-08-18T13:05:29.874Z,36.47
2022-08-18T13:08:04.237Z,41.75
2022-08-18T13:10:44.847Z,20.98
2022-08-18T13:13:16.189Z,39.10
2022-08-18T13:15:55.364Z,44.65
2022-08-18T13:18:27.299Z,34.15
2022-08-18T13:20:56.989Z,23.95
2022-08-18T13:23:25.290Z,36.75
2022-08-18T13:26:01.782Z,22.55
2022-08-18T13:28:35.602Z,12.27
2022-08-18T13:31:05.502Z,17.52
2022-08-18T13:33:34.991Z,31.52
2022-08-18T13:36:22.273Z,16.58
2022-08-18T13:38:50.936Z,13.18
2022-08-18T13:43:53.597Z,12.35
2022-08-18T13:46:24.230Z,36.25
2022-08-18T13:49:03.049Z,37.72
2022-08-18T13:51:31.318Z,39.38
2022-08-18T13:54:18.335Z,42.42
2022-08-18T13:56:52.109Z,46.60
2022-08-18T13:59:22.623Z,55.45
2022-08-18T14:01:52.955Z,54.45
2022-08-18T14:04:23.173Z,52.47
2022-08-18T14:06:58.783Z,39.38
2022-08-18T14:09:37.038Z,39.33
2022-08-18T14:12:15.274Z,12.20
2022-08-18T14:14:51.965Z,37.53
2022-08-18T14:17:19.887Z,39.38
2022-08-18T14:20:10.169Z,37.03
2022-08-18T14:22:56.143Z,35.70
2022-08-18T14:25:42.115Z,39.90
2022-08-18T14:28:11.924Z,39.72
2022-08-18T14:30:41.169Z,34.35
2022-08-18T14:33:21.472Z,39.00
2022-08-18T14:36:07.052Z,29.70
2022-08-18T14:38:38.179Z,37.85
2022-08-18T14:41:08.070Z,38.88
2022-08-18T14:44:00.448Z,31.50
2022-08-18T14:46:30.516Z,40.22
2022-08-18T14:49:04.056Z,35.72
2022-08-18T14:51:33.412Z,35.83
2022-08-18T14:54:01.659Z,37.47
2022-08-18T14:56:36.489Z,36.65
2022-08-18T14:59:07.605Z,38.78
2022-08-18T15:01:42.780Z,37.08
2022-08-18T15:04:18.302Z,34.47
2022-08-18T15:06:56.133Z,36.67
2022-08-18T15:09:27.269Z,31.80
2022-08-18T15:11:55.895Z,33.85
2022-08-18T15:14:26.621Z,32.28
2022-08-18T15:17:03.731Z,33.67
2022-08-18T15:20:00.521Z,31.42
2022-08-18T15:22:47.818Z,21.63
2022-08-18T15:25:33.640Z,25.83
2022-08-18T15:28:01.391Z,38.10
2022-08-18T15:30:29.112Z,34.83
2022-08-18T15:32:58.891Z,21.85
2022-08-18T15:35:26.678Z,36.35
2022-08-18T15:37:55.208Z,32.95
2022-08-18T15:40:35.445Z,36.25
2022-08-18T15:43:09.829Z,35.05
2022-08-18T15:45:56.244Z,36.22
2022-08-18T15:48:28.759Z,34.78
2022-08-18T15:50:57.008Z,35.72
2022-08-18T15:53:44.425Z,14.98
2022-08-18T15:56:14.923Z,35.13
2022-08-18T15:58:42.464Z,38.97
2022-08-18T16:01:29.957Z,34.97
2022-08-18T16:04:01.050Z,32.90
2022-08-18T16:06:32.272Z,35.42
2022-08-18T16:09:01.949Z,33.33
2022-08-18T16:11:30.039Z,29.15
2022-08-18T16:13:59.068Z,35.42
2022-08-18T16:16:35.712Z,35.83
2022-08-18T16:19:06.709Z,36.35
2022-08-18T16:21:36.296Z,34.25
2022-08-18T16:24:04.321Z,27.65
2022-08-18T16:26:31.831Z,32.03
2022-08-18T16:29:01.792Z,36.58
2022-08-18T16:31:29.924Z,33.85
2022-08-18T16:33:58.695Z,18.80
2022-08-18T16:36:27.556Z,24.80
2022-08-18T16:38:58.279Z,25.60
2022-08-18T16:41:26.870Z,19.92
2022-08-18T16:43:54.678Z,18.00
2022-08-18T16:46:25.250Z,15.57
2022-08-18T16:48:53.259Z,11.02
2022-08-18T16:51:22.876Z,14.25
2022-08-18T16:53:53.470Z,13.85
2022-08-18T16:56:23.854Z,12.80
2022-08-18T16:59:09.950Z,11.75
2022-08-18T17:01:56.493Z,9.50
2022-08-18T17:04:28.704Z,9.52
2022-08-18T17:06:57.634Z,10.82
2022-08-18T17:09:27.060Z,23.15
2022-08-18T17:11:55.015Z,11.88
2022-08-18T17:14:24.876Z,12.75
2022-08-18T17:16:55.042Z,10.50
2022-08-18T17:19:24.138Z,9.05
2022-08-18T17:21:51.775Z,14.43
2022-08-18T17:24:31.412Z,10.85
2022-08-18T17:27:25.713Z,16.80
2022-08-18T17:30:00.440Z,28.58
2022-08-18T17:32:31.577Z,36.55
2022-08-18T17:35:04.959Z,14.05
2022-08-18T17:37:34.283Z,10.35
2022-08-18T17:40:07.989Z,13.43
2022-08-18T17:42:40.423Z,35.28
2022-08-18T17:45:13.779Z,30.02
2022-08-18T17:47:56.075Z,36.78
2022-08-18T17:50:45.863Z,40.15
2022-08-18T17:53:13.587Z,13.27
2022-08-18T17:55:45.826Z,30.17
2022-08-18T17:58:20.787Z,27.35
2022-08-18T18:00:48.371Z,8.32
2022-08-18T18:03:15.871Z,10.07
2022-08-18T18:05:46.155Z,10.15
2022-08-18T18:08:13.797Z,11.23
2022-08-18T18:11:02.254Z,10.13
2022-08-18T18:13:33.764Z,12.07
2022-08-18T18:16:03.548Z,20.77
2022-08-18T18:18:41.630Z,21.70
2022-08-18T18:21:21.628Z,22.73
2022-08-18T18:23:52.091Z,28.30
2022-08-18T18:26:28.270Z,25.23
2022-08-18T18:29:19.791Z,21.77
2022-08-18T18:31:58.412Z,16.55
2022-08-18T18:34:30.144Z,14.80
2022-08-18T18:36:59.407Z,12.55
2022-08-18T18:39:33.906Z,15.50
2022-08-18T18:42:17.546Z,17.98
2022-08-18T18:44:53.154Z,20.98
2022-08-18T18:47:58.689Z,18.80
2022-08-18T18:50:33.479Z,14.88
2022-08-18T18:53:13.136Z,15.13
2022-08-18T18:55:49.534Z,25.92
2022-08-18T18:58:27.309Z,14.90
2022-08-18T19:01:00.305Z,14.63
2022-08-18T19:03:33.973Z,44.42
2022-08-18T19:06:15.317Z,57.13
2022-08-18T19:08:54.116Z,26.88
2022-08-18T19:11:29.002Z,64.63
2022-08-18T19:14:03.695Z,49.05
2022-08-18T19:16:41.720Z,23.73
2022-08-18T19:19:35.348Z,21.70
2022-08-18T19:22:10.367Z,26.65
2022-08-18T19:24:46.737Z,21.92
2022-08-18T19:27:23.611Z,18.63
2022-08-18T19:29:55.534Z,97.90
2022-08-18T19:32:34.775Z,96.65
2022-08-18T19:35:04.422Z,79.00
2022-08-18T19:37:53.861Z,40.53
2022-08-18T19:40:28.266Z,32.65
2022-08-18T19:43:01.938Z,37.60
2022-08-18T19:45:37.160Z,27.98
2022-08-18T19:48:17.694Z,28.65
2022-08-18T19:50:52.266Z,78.78
2022-08-18T19:53:52.966Z,105.97
2022-08-18T19:56:34.800Z,101.40
2022-08-18T19:59:19.624Z,109.22
2022-08-18T20:01:58.624Z,51.55
2022-08-18T20:04:44.467Z,36.30
2022-08-18T20:07:29.941Z,38.92
2022-08-18T20:10:14.650Z,87.78
2022-08-18T20:13:01.960Z,60.95
2022-08-18T20:15:31.026Z,30.80
2022-08-18T20:18:06.407Z,29.38
2022-08-18T20:20:38.556Z,37.80
2022-08-18T20:23:31.476Z,32.03
2022-08-18T20:25:59.001Z,29.17
2022-08-18T20:28:35.720Z,35.75
2022-08-18T20:31:12.449Z,27.35
2022-08-18T20:33:46.676Z,36.60
2022-08-18T20:36:24.986Z,35.85
2022-08-18T20:38:55.107Z,22.00
2022-08-18T20:41:31.957Z,25.10
2022-08-18T20:44:05.160Z,31.33
2022-08-18T20:46:43.802Z,27.58
2022-08-18T20:49:23.738Z,22.98
2022-08-18T20:52:04.052Z,31.98
2022-08-18T20:54:58.232Z,29.38
2022-08-18T20:57:34.807Z,25.48
2022-08-18T21:00:13.108Z,30.13
2022-08-18T21:02:46.973Z,26.95
2022-08-18T21:05:18.378Z,23.05
2022-08-18T21:08:04.921Z,21.13
2022-08-18T21:10:34.315Z,21.63
2022-08-18T21:13:04.277Z,22.25
2022-08-18T21:15:35.908Z,22.83
2022-08-18T21:18:06.387Z,24.23
2022-08-18T21:20:35.327Z,25.05
2022-08-18T21:23:08.198Z,28.02
2022-08-18T21:25:36.557Z,25.92
2022-08-18T21:28:07.102Z,26.63
2022-08-18T21:30:34.839Z,23.55
2022-08-18T21:33:17.760Z,22.52
2022-08-18T21:35:45.280Z,23.05
2022-08-18T21:38:14.134Z,21.92
2022-08-18T21:40:45.370Z,23.10
2022-08-18T21:43:16.209Z,23.52
2022-08-18T21:45:47.974Z,26.45
2022-08-18T21:48:16.087Z,20.85
2022-08-18T21:50:50.945Z,20.00
2022-08-18T21:53:28.161Z,21.25
2022-08-18T21:55:57.315Z,21.73
2022-08-18T21:58:33.705Z,21.02
2022-08-18T22:01:13.952Z,30.08
2022-08-18T22:03:57.686Z,29.30
2022-08-18T22:06:30.856Z,33.25
2022-08-18T22:09:24.260Z,28.08
2022-08-18T22:12:47.091Z,29.70
2022-08-18T22:15:19.815Z,27.95
2022-08-18T22:17:54.483Z,28.83
2022-08-18T22:20:42.870Z,24.90
2022-08-18T22:23:54.235Z,24.70
2022-08-18T22:26:26.946Z,23.25
2022-08-18T22:29:00.122Z,25.77
2022-08-18T22:31:32.830Z,24.15
2022-08-18T22:34:07.179Z,25.27
2022-08-18T22:36:38.912Z,25.25
2022-08-18T22:39:08.470Z,24.13
2022-08-18T22:41:36.645Z,25.23
2022-08-18T22:44:05.548Z,26.90
2022-08-18T22:46:35.288Z,28.20
2022-08-18T22:49:03.283Z,48.65
2022-08-18T22:51:32.832Z,80.57
2022-08-18T22:54:00.598Z,32.72
2022-08-18T22:56:35.059Z,32.70
2022-08-18T22:59:16.039Z,28.25
2022-08-18T23:01:50.906Z,31.88
2022-08-18T23:04:20.915Z,29.40
2022-08-18T23:06:51.845Z,28.20
2022-08-18T23:09:21.899Z,29.77
2022-08-18T23:11:49.458Z,29.10
2022-08-18T23:14:17.070Z,40.58
2022-08-18T23:16:45.481Z,36.05
2022-08-18T23:19:16.151Z,37.10
2022-08-18T23:21:44.573Z,37.58
2022-08-18T23:24:14.503Z,39.00
2022-08-18T23:26:42.712Z,46.50
2022-08-18T23:29:11.574Z,37.00
2022-08-18T23:31:41.306Z,39.15
2022-08-18T23:34:09.592Z,30.10
2022-08-18T23:36:41.231Z,33.40
2022-08-18T23:39:11.735Z,39.60
2022-08-18T23:41:39.656Z,39.30
2022-08-18T23:44:07.388Z,47.80
2022-08-18T23:46:35.703Z,43.67
2022-08-18T23:49:10.803Z,32.47
2022-08-18T23:51:44.109Z,35.63
2022-08-18T23:54:14.922Z,34.28
2022-08-18T23:56:42.463Z,36.38
2022-08-18T23:59:10.570Z,36.22
